createdAt,value
2022-12-16T00:01:25.816Z,26.40
2022-12-16T00:05:29.385Z,28.30
2022-12-16T00:09:30.383Z,26.77
2022-12-16T00:13:33.931Z,33.63
2022-12-16T00:17:35.640Z,27.37
2022-12-16T00:21:37.153Z,28.57
2022-12-16T00:25:38.123Z,31.17
2022-12-16T00:29:39.257Z,33.33
2022-12-16T00:33:41.203Z,24.37
2022-12-16T00:37:42.193Z,27.47
2022-12-16T00:41:43.475Z,24.90
2022-12-16T00:45:45.441Z,27.77
2022-12-16T00:49:46.824Z,19.10
2022-12-16T00:53:48.082Z,28.23
2022-12-16T00:57:50.916Z,23.27
2022-12-16T01:01:54.139Z,20.83
2022-12-16T01:05:56.562Z,19.93
2022-12-16T01:09:57.514Z,23.80
2022-12-16T01:13:58.991Z,20.63
2022-12-16T01:18:00.001Z,18.47
2022-12-16T01:22:01.151Z,26.70
2022-12-16T01:26:03.018Z,21.47
2022-12-16T01:30:05.011Z,19.27
2022-12-16T01:34:06.083Z,20.20
2022-12-16T01:38:07.152Z,21.10
2022-12-16T01:42:14.927Z,21.33
2022-12-16T01:46:22.609Z,26.40
2022-12-16T01:50:25.036Z,18.70
2022-12-16T01:54:29.809Z,21.23
2022-12-16T01:58:34.307Z,21.03
2022-12-16T02:02:36.149Z,23.57
2022-12-16T02:06:37.369Z,21.23
2022-12-16T02:10:44.648Z,26.90
2022-12-16T02:15:06.180Z,29.63
2022-12-16T02:19:11.218Z,28.10
2022-12-16T02:23:25.666Z,14.83
2022-12-16T02:27:30.584Z,14.20
2022-12-16T02:32:09.544Z,14.00
2022-12-16T02:36:14.426Z,17.20
2022-12-16T02:40:19.289Z,15.20
2022-12-16T02:44:21.303Z,19.30
2022-12-16T02:48:22.452Z,15.20
2022-12-16T02:52:26.572Z,15.30
2022-12-16T02:56:49.219Z,11.00
2022-12-16T03:00:57.031Z,14.37
2022-12-16T03:05:04.461Z,9.90
2022-12-16T03:09:09.097Z,13.33
2022-12-16T03:13:12.587Z,12.83
2022-12-16T03:17:16.030Z,16.77
2022-12-16T03:21:20.171Z,9.53
2022-12-16T03:25:23.055Z,10.50
2022-12-16T03:29:27.874Z,12.10
2022-12-16T03:33:33.021Z,16.33
2022-12-16T03:37:36.808Z,15.90
2022-12-16T03:41:38.490Z,11.87
2022-12-16T03:45:42.163Z,11.53
2022-12-16T03:49:43.419Z,13.13
2022-12-16T03:53:45.647Z,10.43
2022-12-16T03:57:46.594Z,13.67
2022-12-16T04:01:47.577Z,10.27
2022-12-16T04:05:49.137Z,11.40
2022-12-16T04:09:51.995Z,10.07
2022-12-16T04:14:11.656Z,9.60
2022-12-16T04:18:36.239Z,8.17
2022-12-16T04:23:00.914Z,10.67
2022-12-16T04:27:03.784Z,16.23
2022-12-16T04:31:05.251Z,16.17
2022-12-16T04:35:14.634Z,18.37
2022-12-16T04:39:34.154Z,8.63
2022-12-16T04:43:53.478Z,11.57
2022-12-16T04:48:12.925Z,10.07
2022-12-16T04:52:32.475Z,12.83
2022-12-16T04:56:51.775Z,12.27
2022-12-16T05:01:11.133Z,13.83
2022-12-16T05:05:30.405Z,12.87
2022-12-16T05:09:49.973Z,11.40
2022-12-16T05:14:09.219Z,9.87
2022-12-16T05:18:34.178Z,13.67
2022-12-16T05:22:53.543Z,11.73
2022-12-16T05:27:12.778Z,11.73
2022-12-16T05:31:32.645Z,15.20
2022-12-16T05:35:52.006Z,12.90
2022-12-16T05:40:11.239Z,12.67
2022-12-16T05:44:30.406Z,9.90
2022-12-16T05:48:49.809Z,11.17
2022-12-16T05:53:10.707Z,10.63
2022-12-16T05:57:19.340Z,10.50
2022-12-16T06:01:39.126Z,7.60
2022-12-16T06:05:58.866Z,11.13
2022-12-16T06:10:19.496Z,11.70
2022-12-16T06:14:39.149Z,11.70
2022-12-16T06:18:58.745Z,11.83
2022-12-16T06:23:22.536Z,10.07
2022-12-16T06:27:39.647Z,17.07
2022-12-16T06:31:59.162Z,11.63
2022-12-16T06:36:18.669Z,10.60
2022-12-16T06:40:38.027Z,10.50
2022-12-16T06:44:57.602Z,11.20
2022-12-16T06:49:17.136Z,10.20
2022-12-16T06:53:36.612Z,10.53
2022-12-16T06:57:55.944Z,13.43
2022-12-16T07:02:15.264Z,10.63
2022-12-16T07:06:34.957Z,9.73
2022-12-16T07:10:54.966Z,9.80
2022-12-16T07:15:16.162Z,9.03
2022-12-16T07:19:35.609Z,7.57
2022-12-16T07:23:56.810Z,10.43
2022-12-16T07:28:16.064Z,14.37
2022-12-16T07:32:35.738Z,10.63
2022-12-16T07:36:55.302Z,12.77
2022-12-16T07:41:14.820Z,14.70
2022-12-16T07:45:34.591Z,10.63
2022-12-16T07:49:37.506Z,9.43
2022-12-16T07:53:57.008Z,39.43
2022-12-16T07:58:16.814Z,19.07
2022-12-16T08:02:37.477Z,11.20
2022-12-16T08:06:58.276Z,11.50
2022-12-16T08:11:18.450Z,10.17
2022-12-16T08:15:37.986Z,15.93
2022-12-16T08:19:57.588Z,98.20
2022-12-16T08:24:17.408Z,51.03
2022-12-16T08:28:36.912Z,14.47
2022-12-16T08:33:00.574Z,35.27
2022-12-16T08:37:19.098Z,21.93
2022-12-16T08:41:38.880Z,20.63
2022-12-16T08:45:59.106Z,84.67
2022-12-16T08:50:18.677Z,10.43
2022-12-16T08:54:38.137Z,18.87
2022-12-16T08:58:57.954Z,39.50
2022-12-16T09:03:18.728Z,24.07
2022-12-16T09:07:38.349Z,21.57
2022-12-16T09:11:59.259Z,25.80
2022-12-16T09:16:19.930Z,23.50
2022-12-16T09:20:39.564Z,27.63
2022-12-16T09:24:51.700Z,16.20
2022-12-16T09:29:12.403Z,26.03
2022-12-16T09:33:32.162Z,18.00
2022-12-16T09:37:52.491Z,38.10
2022-12-16T09:42:36.692Z,13.73
2022-12-16T09:47:08.492Z,14.77
2022-12-16T09:51:29.710Z,32.77
2022-12-16T09:55:53.197Z,16.10
2022-12-16T10:00:16.453Z,27.53
2022-12-16T10:04:36.151Z,10.77
2022-12-16T10:09:17.915Z,10.33
2022-12-16T10:13:44.380Z,14.37
2022-12-16T10:18:04.308Z,10.30
2022-12-16T10:22:44.535Z,14.33
2022-12-16T10:27:25.827Z,11.23
2022-12-16T10:31:45.403Z,12.27
2022-12-16T10:36:08.800Z,12.13
2022-12-16T10:40:32.570Z,10.23
2022-12-16T10:44:58.144Z,10.87
2022-12-16T10:49:17.953Z,15.33
2022-12-16T10:53:41.424Z,17.37
2022-12-16T10:58:22.819Z,10.73
2022-12-16T11:02:44.968Z,13.13
2022-12-16T11:07:04.408Z,11.93
2022-12-16T11:11:27.737Z,12.23
2022-12-16T11:15:49.731Z,12.40
2022-12-16T11:20:13.096Z,12.63
2022-12-16T11:24:38.205Z,12.73
2022-12-16T11:28:57.654Z,12.03
2022-12-16T11:33:20.528Z,14.07
2022-12-16T11:37:41.798Z,13.73
2022-12-16T11:42:04.900Z,11.53
2022-12-16T11:46:30.991Z,12.37
2022-12-16T11:50:54.088Z,12.60
2022-12-16T11:55:35.755Z,12.40
2022-12-16T12:00:02.429Z,12.57
2022-12-16T12:04:22.545Z,13.63
2022-12-16T12:08:51.892Z,12.53
2022-12-16T12:13:20.499Z,13.67
2022-12-16T12:17:50.076Z,14.53
2022-12-16T12:22:27.993Z,13.70
2022-12-16T12:26:50.727Z,13.10
2022-12-16T12:31:17.376Z,16.97
2022-12-16T12:35:49.927Z,14.40
2022-12-16T12:40:20.001Z,15.73
2022-12-16T12:45:07.181Z,14.60
2022-12-16T12:49:36.273Z,14.17
2022-12-16T12:54:06.056Z,15.33
2022-12-16T12:58:27.905Z,16.13
2022-12-16T13:02:49.916Z,13.63
2022-12-16T13:07:10.909Z,14.60
2022-12-16T13:11:35.358Z,17.80
2022-12-16T13:15:56.792Z,18.40
2022-12-16T13:20:16.436Z,16.93
2022-12-16T13:25:00.499Z,15.93
2022-12-16T13:29:40.923Z,15.80
2022-12-16T13:34:04.508Z,18.10
2022-12-16T13:38:26.776Z,16.07
2022-12-16T13:43:02.534Z,17.70
2022-12-16T13:47:25.720Z,15.90
2022-12-16T13:52:01.527Z,23.17
2022-12-16T13:56:24.419Z,19.43
2022-12-16T14:00:40.852Z,19.23
2022-12-16T14:05:10.004Z,17.23
2022-12-16T14:09:57.427Z,17.27
2022-12-16T14:14:20.798Z,21.10
2022-12-16T14:18:44.741Z,18.97
2022-12-16T14:23:39.189Z,19.03
2022-12-16T14:27:39.912Z,18.20
2022-12-16T14:32:01.671Z,21.17
2022-12-16T14:36:21.657Z,26.47
2022-12-16T14:40:45.084Z,20.50
2022-12-16T14:45:06.008Z,20.83
2022-12-16T14:49:38.166Z,22.10
2022-12-16T14:53:57.705Z,18.33
2022-12-16T14:58:31.937Z,26.80
2022-12-16T15:02:55.605Z,30.03
2022-12-16T15:07:18.433Z,24.97
2022-12-16T15:11:42.980Z,25.60
2022-12-16T15:16:08.559Z,24.33
2022-12-16T15:20:43.275Z,53.60
2022-12-16T15:25:05.070Z,27.13
2022-12-16T15:29:46.062Z,24.50
2022-12-16T15:34:08.606Z,26.53
2022-12-16T15:38:36.147Z,24.20
2022-12-16T15:42:57.187Z,25.30
2022-12-16T15:47:19.021Z,34.70
2022-12-16T15:51:51.309Z,36.55
2022-12-16T15:56:16.124Z,37.27
2022-12-16T16:00:47.105Z,36.50
2022-12-16T16:05:08.419Z,37.70
2022-12-16T16:09:35.780Z,39.70
2022-12-16T16:14:02.891Z,39.93
2022-12-16T16:18:25.506Z,49.90
2022-12-16T16:22:48.210Z,53.33
2022-12-16T16:27:08.563Z,48.23
2022-12-16T16:31:29.937Z,56.43
2022-12-16T16:35:50.592Z,45.13
2022-12-16T16:40:10.763Z,49.57
2022-12-16T16:44:30.246Z,36.50
2022-12-16T16:48:51.485Z,40.57
2022-12-16T16:53:11.110Z,43.27
2022-12-16T16:57:30.694Z,34.70
2022-12-16T17:01:50.152Z,44.67
2022-12-16T17:06:12.118Z,48.57
2022-12-16T17:10:31.694Z,37.53
2022-12-16T17:14:51.424Z,46.93
2022-12-16T17:19:10.819Z,40.87
2022-12-16T17:23:33.586Z,37.63
2022-12-16T17:27:53.382Z,39.87
2022-12-16T17:32:13.298Z,36.87
2022-12-16T17:36:35.056Z,40.10
2022-12-16T17:40:54.363Z,37.60
2022-12-16T17:45:13.992Z,35.13
2022-12-16T17:49:33.480Z,39.40
2022-12-16T17:53:58.615Z,52.60
2022-12-16T17:58:08.364Z,37.70
2022-12-16T18:02:30.765Z,29.40
2022-12-16T18:06:50.814Z,29.97
2022-12-16T18:11:11.393Z,35.93
2022-12-16T18:15:30.872Z,37.10
2022-12-16T18:19:50.259Z,33.37
2022-12-16T18:24:09.819Z,45.03
2022-12-16T18:28:30.733Z,32.90
2022-12-16T18:32:50.448Z,37.57
2022-12-16T18:37:09.983Z,38.23
2022-12-16T18:41:36.218Z,42.37
2022-12-16T18:45:55.861Z,66.80
2022-12-16T18:50:15.471Z,44.97
2022-12-16T18:54:36.649Z,47.13
2022-12-16T18:58:56.339Z,37.93
2022-12-16T19:03:15.835Z,37.83
2022-12-16T19:07:36.106Z,35.47
2022-12-16T19:11:55.879Z,36.60
2022-12-16T19:16:15.993Z,36.40
2022-12-16T19:20:35.663Z,42.43
2022-12-16T19:24:56.307Z,50.20
2022-12-16T19:29:15.760Z,41.33
2022-12-16T19:33:35.190Z,36.47
2022-12-16T19:37:54.751Z,45.40
2022-12-16T19:42:16.031Z,46.90
2022-12-16T19:46:35.480Z,49.00
2022-12-16T19:50:56.352Z,40.27
2022-12-16T19:55:17.684Z,54.50
2022-12-16T19:59:38.725Z,52.23
2022-12-16T20:03:58.749Z,55.70
2022-12-16T20:08:18.537Z,48.63
2022-12-16T20:12:38.288Z,34.43
2022-12-16T20:16:58.885Z,37.57
2022-12-16T20:21:20.804Z,39.20
2022-12-16T20:25:40.332Z,38.97
2022-12-16T20:29:59.650Z,43.43
2022-12-16T20:34:19.203Z,44.73
2022-12-16T20:38:38.980Z,40.27
2022-12-16T20:42:59.237Z,44.00
2022-12-16T20:47:19.287Z,38.10
2022-12-16T20:51:38.753Z,41.30
2022-12-16T20:55:58.038Z,35.07
2022-12-16T21:00:17.620Z,34.23
2022-12-16T21:04:37.125Z,28.30
2022-12-16T21:08:57.314Z,34.95
2022-12-16T21:13:25.979Z,33.37
2022-12-16T21:17:46.883Z,32.87
2022-12-16T21:22:06.418Z,21.07
2022-12-16T21:26:26.008Z,21.77
2022-12-16T21:30:46.756Z,25.77
2022-12-16T21:35:05.987Z,23.93
2022-12-16T21:39:25.454Z,27.53
2022-12-16T21:43:44.957Z,26.17
2022-12-16T21:48:04.476Z,27.93
2022-12-16T21:52:24.544Z,29.63
2022-12-16T21:56:44.067Z,40.80
2022-12-16T22:01:05.982Z,32.03
2022-12-16T22:05:25.769Z,31.57
2022-12-16T22:09:45.187Z,31.57
2022-12-16T22:14:04.662Z,39.50
2022-12-16T22:18:24.240Z,34.80
2022-12-16T22:22:43.993Z,32.50
2022-12-16T22:27:03.388Z,27.97
2022-12-16T22:31:25.709Z,22.03
2022-12-16T22:35:45.039Z,22.90
2022-12-16T22:40:07.285Z,20.20
2022-12-16T22:44:26.781Z,21.63
2022-12-16T22:48:46.010Z,25.13
2022-12-16T22:53:05.489Z,22.07
2022-12-16T22:57:24.913Z,30.13
2022-12-16T23:01:44.260Z,30.57
2022-12-16T23:06:04.265Z,30.50
2022-12-16T23:10:24.687Z,22.60
2022-12-16T23:14:49.204Z,28.67
2022-12-16T23:19:08.444Z,35.77
2022-12-16T23:23:27.712Z,36.27
2022-12-16T23:27:46.994Z,35.70
2022-12-16T23:32:06.284Z,38.27
2022-12-16T23:36:26.113Z,33.97
2022-12-16T23:40:45.378Z,29.12
2022-12-16T23:45:04.702Z,34.70
2022-12-16T23:49:23.949Z,38.17
2022-12-16T23:53:43.374Z,41.77
2022-12-16T23:58:02.721Z,41.00
